createdAt,value
2023-03-17T00:01:51.034Z,7.60
2023-03-17T00:04:19.908Z,7.50
2023-03-17T00:06:48.667Z,7.50
2023-03-17T00:09:18.474Z,7.50
2023-03-17T00:11:47.070Z,7.50
2023-03-17T00:14:15.266Z,7.50
2023-03-17T00:16:47.065Z,7.50
2023-03-17T00:19:17.171Z,7.50
2023-03-17T00:21:45.765Z,7.50
2023-03-17T00:24:15.337Z,7.50
2023-03-17T00:26:43.538Z,7.40
2023-03-17T00:29:11.414Z,7.40
2023-03-17T00:31:40.173Z,7.40
2023-03-17T00:34:13.100Z,7.40
2023-03-17T00:36:49.662Z,7.40
2023-03-17T00:39:18.485Z,7.40
2023-03-17T00:44:14.376Z,7.40
2023-03-17T00:46:42.428Z,7.40
2023-03-17T00:49:20.848Z,7.40
2023-03-17T00:51:50.639Z,7.40
2023-03-17T00:54:21.286Z,7.40
2023-03-17T00:56:50.805Z,7.30
2023-03-17T00:59:22.730Z,7.30
2023-03-17T01:01:51.037Z,7.30
2023-03-17T01:04:20.598Z,7.30
2023-03-17T01:06:50.272Z,7.30
2023-03-17T01:09:20.302Z,7.30
2023-03-17T01:11:48.670Z,7.30
2023-03-17T01:14:17.373Z,7.30
2023-03-17T01:16:45.672Z,7.30
2023-03-17T01:19:14.791Z,7.30
2023-03-17T01:21:43.995Z,7.30
2023-03-17T01:24:12.771Z,7.30
2023-03-17T01:26:40.658Z,7.30
2023-03-17T01:29:09.007Z,7.20
2023-03-17T01:31:37.272Z,7.30
2023-03-17T01:34:06.044Z,7.20
2023-03-17T01:36:34.171Z,7.20
2023-03-17T01:39:05.376Z,7.20
2023-03-17T01:41:35.304Z,7.20
2023-03-17T01:44:03.309Z,7.20
2023-03-17T01:46:32.680Z,7.20
2023-03-17T01:49:09.443Z,7.20
2023-03-17T01:51:46.528Z,7.20
2023-03-17T01:54:22.385Z,7.20
2023-03-17T01:56:52.812Z,7.20
2023-03-17T01:59:24.726Z,7.20
2023-03-17T02:01:58.288Z,7.10
2023-03-17T02:04:26.960Z,7.10
2023-03-17T02:06:58.499Z,7.20
2023-03-17T02:09:29.277Z,7.20
2023-03-17T02:11:59.709Z,7.10
2023-03-17T02:14:27.848Z,7.20
2023-03-17T02:16:56.214Z,7.10
2023-03-17T02:19:24.316Z,7.10
2023-03-17T02:21:55.308Z,7.10
2023-03-17T02:24:31.141Z,7.10
2023-03-17T02:27:05.589Z,7.10
2023-03-17T02:29:35.926Z,7.10
2023-03-17T02:32:04.328Z,7.10
2023-03-17T02:34:32.716Z,7.10
2023-03-17T02:37:02.251Z,7.00
2023-03-17T02:39:30.680Z,7.10
2023-03-17T02:41:58.573Z,7.10
2023-03-17T02:44:26.977Z,7.00
2023-03-17T02:46:54.868Z,7.00
2023-03-17T02:49:23.530Z,7.00
2023-03-17T02:51:52.384Z,7.00
2023-03-17T02:54:21.524Z,7.00
2023-03-17T02:56:49.383Z,7.00
2023-03-17T02:59:17.192Z,7.00
2023-03-17T03:01:45.081Z,7.00
2023-03-17T03:04:13.332Z,7.00
2023-03-17T03:06:42.445Z,6.90
2023-03-17T03:09:11.620Z,6.90
2023-03-17T03:11:41.588Z,6.90
2023-03-17T03:14:09.630Z,6.90
2023-03-17T03:16:37.712Z,6.80
2023-03-17T03:19:05.633Z,6.80
2023-03-17T03:21:33.529Z,6.80
2023-03-17T03:24:02.026Z,6.80
2023-03-17T03:26:29.881Z,6.80
2023-03-17T03:28:59.946Z,6.80
2023-03-17T03:31:28.295Z,6.80
2023-03-17T03:33:56.149Z,6.80
2023-03-17T03:36:25.294Z,6.80
2023-03-17T03:38:53.134Z,6.80
2023-03-17T03:41:21.323Z,6.70
2023-03-17T03:43:49.194Z,6.70
2023-03-17T03:46:18.421Z,6.70
2023-03-17T03:48:46.291Z,6.70
2023-03-17T03:51:14.122Z,6.70
2023-03-17T03:53:41.988Z,6.70
2023-03-17T03:56:09.870Z,6.70
2023-03-17T03:58:37.793Z,6.70
2023-03-17T04:01:10.302Z,6.60
2023-03-17T04:03:40.148Z,6.60
2023-03-17T04:06:08.281Z,6.60
2023-03-17T04:08:36.511Z,6.50
2023-03-17T04:11:04.426Z,6.60
2023-03-17T04:13:32.246Z,6.60
2023-03-17T04:16:01.369Z,6.50
2023-03-17T04:18:29.262Z,6.50
2023-03-17T04:20:58.641Z,6.50
2023-03-17T04:23:26.503Z,6.50
2023-03-17T04:25:54.645Z,6.40
2023-03-17T04:28:22.573Z,6.40
2023-03-17T04:30:50.581Z,6.50
2023-03-17T04:33:20.173Z,6.40
2023-03-17T04:35:48.055Z,6.40
2023-03-17T04:38:17.247Z,6.40
2023-03-17T04:40:45.385Z,6.40
2023-03-17T04:43:13.191Z,6.30
2023-03-17T04:45:41.088Z,6.30
2023-03-17T04:48:08.897Z,6.30
2023-03-17T04:50:36.813Z,6.30
2023-03-17T04:53:04.641Z,6.20
2023-03-17T04:55:33.815Z,6.20
2023-03-17T04:58:01.962Z,6.20
2023-03-17T05:00:29.963Z,6.20
2023-03-17T05:02:57.943Z,6.10
2023-03-17T05:05:25.847Z,6.20
2023-03-17T05:07:53.666Z,6.10
2023-03-17T05:10:21.511Z,6.10
2023-03-17T05:12:50.929Z,6.10
2023-03-17T05:15:18.942Z,6.10
2023-03-17T05:17:46.780Z,6.10
2023-03-17T05:20:15.530Z,6.10
2023-03-17T05:22:43.363Z,6.00
2023-03-17T05:25:11.296Z,6.00
2023-03-17T05:27:39.449Z,6.00
2023-03-17T05:30:10.267Z,6.00
2023-03-17T05:32:38.236Z,6.00
2023-03-17T05:35:06.805Z,6.00
2023-03-17T05:37:34.814Z,5.90
2023-03-17T05:40:03.126Z,5.90
2023-03-17T05:42:31.063Z,5.90
2023-03-17T05:44:59.528Z,5.80
2023-03-17T05:47:28.726Z,5.90
2023-03-17T05:49:56.698Z,5.80
2023-03-17T05:52:24.551Z,5.90
2023-03-17T05:54:53.389Z,5.80
2023-03-17T05:57:21.679Z,5.80
2023-03-17T05:59:50.738Z,5.80
2023-03-17T06:02:18.804Z,5.80
2023-03-17T06:04:48.031Z,5.70
2023-03-17T06:07:15.948Z,5.70
2023-03-17T06:09:43.866Z,5.70
2023-03-17T06:12:11.758Z,5.70
2023-03-17T06:14:39.625Z,5.70
2023-03-17T06:17:07.516Z,5.60
2023-03-17T06:19:35.575Z,5.60
2023-03-17T06:22:04.786Z,5.60
2023-03-17T06:24:32.559Z,5.60
2023-03-17T06:27:09.642Z,5.60
2023-03-17T06:29:37.998Z,5.60
2023-03-17T06:32:19.486Z,5.60
2023-03-17T06:34:48.524Z,5.50
2023-03-17T06:37:17.731Z,5.50
2023-03-17T06:39:45.729Z,5.50
2023-03-17T06:42:13.910Z,5.50
2023-03-17T06:44:41.946Z,5.50
2023-03-17T06:47:10.121Z,5.50
2023-03-17T06:49:38.054Z,5.50
2023-03-17T06:52:06.445Z,5.50
2023-03-17T06:54:36.529Z,5.50
2023-03-17T06:57:04.509Z,5.40
2023-03-17T06:59:32.396Z,5.50
2023-03-17T07:02:00.552Z,5.50
2023-03-17T07:04:28.474Z,5.50
2023-03-17T07:06:56.432Z,5.50
2023-03-17T07:09:24.337Z,5.50
2023-03-17T07:11:53.559Z,5.50
2023-03-17T07:14:21.390Z,5.50
2023-03-17T07:16:50.218Z,5.50
2023-03-17T07:19:18.096Z,5.50
2023-03-17T07:21:47.053Z,5.50
2023-03-17T07:24:15.017Z,5.50
2023-03-17T07:26:42.846Z,5.60
2023-03-17T07:29:12.060Z,5.60
2023-03-17T07:31:39.888Z,5.60
2023-03-17T07:34:07.958Z,5.70
2023-03-17T07:36:35.915Z,5.60
2023-03-17T07:39:04.600Z,5.70
2023-03-17T07:41:32.498Z,5.70
2023-03-17T07:44:00.609Z,5.70
2023-03-17T07:46:29.890Z,5.70
2023-03-17T07:48:58.227Z,5.80
2023-03-17T07:51:28.069Z,5.80
2023-03-17T07:54:03.140Z,5.80
2023-03-17T07:56:31.934Z,5.80
2023-03-17T07:59:02.756Z,5.80
2023-03-17T08:01:32.241Z,5.80
2023-03-17T08:04:00.678Z,5.90
2023-03-17T08:06:28.710Z,5.90
2023-03-17T08:08:56.546Z,5.90
2023-03-17T08:11:24.429Z,5.90
2023-03-17T08:13:52.223Z,6.00
2023-03-17T08:16:20.095Z,6.00
2023-03-17T08:18:49.368Z,6.00
2023-03-17T08:21:17.632Z,6.10
2023-03-17T08:23:45.617Z,6.10
2023-03-17T08:26:14.229Z,6.20
2023-03-17T08:28:42.916Z,6.20
2023-03-17T08:31:13.596Z,6.20
2023-03-17T08:33:42.379Z,6.30
2023-03-17T08:36:12.775Z,6.30
2023-03-17T08:38:42.504Z,6.40
2023-03-17T08:41:12.236Z,6.40
2023-03-17T08:43:40.658Z,6.40
2023-03-17T08:46:11.230Z,6.50
2023-03-17T08:48:39.119Z,6.50
2023-03-17T08:51:07.913Z,6.60
2023-03-17T08:53:37.405Z,6.60
2023-03-17T08:56:06.684Z,6.60
2023-03-17T08:58:34.963Z,6.70
2023-03-17T09:01:04.418Z,6.80
2023-03-17T09:03:32.703Z,6.80
2023-03-17T09:06:00.984Z,6.90
2023-03-17T09:08:29.241Z,6.90
2023-03-17T09:10:58.640Z,7.00
2023-03-17T09:13:27.192Z,7.10
2023-03-17T09:15:56.026Z,7.20
2023-03-17T09:18:24.004Z,7.20
2023-03-17T09:20:51.961Z,7.30
2023-03-17T09:23:20.078Z,7.40
2023-03-17T09:25:47.999Z,7.50
2023-03-17T09:28:17.370Z,7.60
2023-03-17T09:30:45.603Z,7.70
2023-03-17T09:33:14.598Z,7.80
2023-03-17T09:35:42.927Z,7.90
2023-03-17T09:38:11.561Z,8.00
2023-03-17T09:40:47.948Z,8.10
2023-03-17T09:43:27.290Z,8.10
2023-03-17T09:45:57.015Z,8.20
2023-03-17T09:48:43.198Z,8.30
2023-03-17T09:51:13.792Z,8.30
2023-03-17T09:53:50.188Z,8.40
2023-03-17T09:56:20.957Z,8.60
2023-03-17T09:58:53.804Z,8.60
2023-03-17T10:01:21.914Z,8.70
2023-03-17T10:03:50.898Z,8.80
2023-03-17T10:06:41.069Z,8.90
2023-03-17T10:09:19.526Z,9.00
2023-03-17T10:11:49.469Z,9.10
2023-03-17T10:14:39.651Z,9.20
2023-03-17T10:17:16.483Z,9.30
2023-03-17T10:19:49.610Z,9.40
2023-03-17T10:22:23.595Z,9.50
2023-03-17T10:24:53.874Z,9.60
2023-03-17T10:27:22.455Z,9.60
2023-03-17T10:29:51.827Z,9.70
2023-03-17T10:32:19.688Z,9.80
2023-03-17T10:34:48.785Z,9.80
2023-03-17T10:37:19.180Z,9.90
2023-03-17T10:39:49.139Z,10.00
2023-03-17T10:42:23.726Z,10.20
2023-03-17T10:44:56.660Z,10.30
2023-03-17T10:47:32.202Z,10.40
2023-03-17T10:50:05.437Z,10.40
2023-03-17T10:52:39.482Z,10.50
2023-03-17T10:55:10.506Z,10.60
2023-03-17T10:57:39.209Z,10.60
2023-03-17T11:00:17.957Z,10.70
2023-03-17T11:02:52.458Z,10.80
2023-03-17T11:05:22.845Z,10.80
2023-03-17T11:07:51.589Z,10.90
2023-03-17T11:10:23.218Z,11.00
2023-03-17T11:12:58.657Z,11.10
2023-03-17T11:15:33.674Z,11.10
2023-03-17T11:18:03.620Z,11.20
2023-03-17T11:20:49.417Z,11.30
2023-03-17T11:23:27.453Z,11.30
2023-03-17T11:26:06.613Z,11.40
2023-03-17T11:28:41.033Z,11.50
2023-03-17T11:31:17.204Z,11.60
2023-03-17T11:33:53.253Z,11.70
2023-03-17T11:36:37.375Z,11.70
2023-03-17T11:39:12.977Z,11.80
2023-03-17T11:42:01.044Z,11.90
2023-03-17T11:44:56.137Z,11.90
2023-03-17T11:47:40.689Z,12.00
2023-03-17T11:50:20.711Z,12.00
2023-03-17T11:53:03.656Z,12.10
2023-03-17T11:55:38.661Z,12.20
2023-03-17T11:58:10.464Z,12.20
2023-03-17T12:00:42.912Z,12.20
2023-03-17T12:03:20.056Z,12.20
2023-03-17T12:05:51.392Z,12.30
2023-03-17T12:08:28.229Z,12.30
2023-03-17T12:11:00.973Z,12.30
2023-03-17T12:13:35.462Z,12.40
2023-03-17T12:16:06.675Z,12.50
2023-03-17T12:18:42.108Z,12.50
2023-03-17T12:21:18.712Z,12.60
2023-03-17T12:23:49.439Z,12.60
2023-03-17T12:26:20.805Z,12.70
2023-03-17T12:28:55.180Z,12.70
2023-03-17T12:31:28.002Z,12.80
2023-03-17T12:34:04.961Z,12.80
2023-03-17T12:36:33.572Z,12.90
2023-03-17T12:39:05.371Z,13.00
2023-03-17T12:41:59.687Z,13.00
2023-03-17T12:44:41.495Z,13.10
2023-03-17T12:47:40.964Z,13.10
2023-03-17T12:50:25.931Z,13.20
2023-03-17T12:53:11.371Z,13.20
2023-03-17T12:55:39.814Z,13.30
2023-03-17T12:58:24.252Z,13.30
2023-03-17T13:01:01.906Z,13.40
2023-03-17T13:03:33.918Z,13.40
2023-03-17T13:06:07.338Z,13.50
2023-03-17T13:08:37.408Z,13.50
2023-03-17T13:11:27.092Z,13.60
2023-03-17T13:14:15.299Z,13.60
2023-03-17T13:16:47.670Z,13.60
2023-03-17T13:19:21.412Z,13.70
2023-03-17T13:22:13.946Z,13.70
2023-03-17T13:24:47.385Z,13.70
2023-03-17T13:27:36.346Z,13.80
2023-03-17T13:30:37.562Z,13.90
2023-03-17T13:33:23.705Z,13.90
2023-03-17T13:36:23.912Z,13.90
2023-03-17T13:39:18.957Z,14.00
2023-03-17T13:42:05.478Z,14.00
2023-03-17T13:44:51.732Z,14.00
2023-03-17T13:47:32.525Z,14.10
2023-03-17T13:50:08.654Z,14.10
2023-03-17T13:52:42.986Z,14.20
2023-03-17T13:56:03.868Z,14.20
2023-03-17T13:58:35.749Z,14.20
2023-03-17T14:01:07.711Z,14.30
2023-03-17T14:03:41.911Z,14.30
2023-03-17T14:06:13.422Z,14.30
2023-03-17T14:08:46.747Z,14.40
2023-03-17T14:11:26.914Z,14.40
2023-03-17T14:14:08.776Z,14.50
2023-03-17T14:16:44.270Z,14.50
2023-03-17T14:19:19.121Z,14.50
2023-03-17T14:21:47.007Z,14.50
2023-03-17T14:24:23.969Z,14.60
2023-03-17T14:26:53.846Z,14.60
2023-03-17T14:29:30.524Z,14.60
2023-03-17T14:32:04.304Z,14.60
2023-03-17T14:34:32.391Z,14.60
2023-03-17T14:37:02.712Z,14.60
2023-03-17T14:39:30.688Z,14.60
2023-03-17T14:42:02.227Z,14.70
2023-03-17T14:44:37.648Z,14.70
2023-03-17T14:47:15.857Z,14.70
2023-03-17T14:49:44.003Z,14.70
2023-03-17T14:52:19.924Z,14.80
2023-03-17T14:54:51.465Z,14.80
2023-03-17T14:57:24.620Z,14.80
2023-03-17T14:59:59.780Z,14.80
2023-03-17T15:02:34.123Z,14.80
2023-03-17T15:05:08.176Z,14.80
2023-03-17T15:07:40.549Z,14.80
2023-03-17T15:10:17.070Z,14.80
2023-03-17T15:12:48.237Z,14.80
2023-03-17T15:15:21.738Z,14.80
2023-03-17T15:17:52.070Z,14.70
2023-03-17T15:20:20.672Z,14.80
2023-03-17T15:22:49.392Z,14.80
2023-03-17T15:25:19.249Z,14.80
2023-03-17T15:27:48.834Z,14.70
2023-03-17T15:30:17.801Z,14.70
2023-03-17T15:32:45.552Z,14.70
2023-03-17T15:35:14.182Z,14.70
2023-03-17T15:37:43.902Z,14.70
2023-03-17T15:40:12.327Z,14.70
2023-03-17T15:42:40.450Z,14.80
2023-03-17T15:45:10.308Z,14.80
2023-03-17T15:47:39.941Z,14.80
2023-03-17T15:50:14.555Z,14.70
2023-03-17T15:52:42.195Z,14.70
2023-03-17T15:55:16.489Z,14.80
2023-03-17T15:57:53.843Z,14.70
2023-03-17T16:00:24.993Z,14.80
2023-03-17T16:02:53.869Z,14.80
2023-03-17T16:05:23.005Z,14.80
2023-03-17T16:07:50.820Z,14.80
2023-03-17T16:10:19.335Z,14.80
2023-03-17T16:12:47.005Z,14.80
2023-03-17T16:15:23.140Z,14.70
2023-03-17T16:17:54.759Z,14.70
2023-03-17T16:20:24.447Z,14.70
2023-03-17T16:22:52.854Z,14.70
2023-03-17T16:25:22.798Z,14.70
2023-03-17T16:27:50.541Z,14.70
2023-03-17T16:30:19.479Z,14.70
2023-03-17T16:32:47.253Z,14.60
2023-03-17T16:35:17.444Z,14.60
2023-03-17T16:37:45.156Z,14.60
2023-03-17T16:40:20.102Z,14.60
2023-03-17T16:42:48.237Z,14.50
2023-03-17T16:45:19.840Z,14.50
2023-03-17T16:47:47.512Z,14.50
2023-03-17T16:50:17.698Z,14.50
2023-03-17T16:52:45.481Z,14.50
2023-03-17T16:55:13.623Z,14.40
2023-03-17T16:57:42.929Z,14.50
2023-03-17T17:00:16.477Z,14.40
2023-03-17T17:02:45.024Z,14.40
2023-03-17T17:05:18.890Z,14.40
2023-03-17T17:07:46.659Z,14.40
2023-03-17T17:10:16.049Z,14.40
2023-03-17T17:12:43.865Z,14.40
2023-03-17T17:15:12.515Z,14.30
2023-03-17T17:17:41.601Z,14.30
2023-03-17T17:20:14.880Z,14.20
2023-03-17T17:22:43.906Z,14.20
2023-03-17T17:25:12.153Z,14.20
2023-03-17T17:27:41.638Z,14.20
2023-03-17T17:30:10.663Z,14.20
2023-03-17T17:32:38.613Z,14.20
2023-03-17T17:35:06.799Z,14.10
2023-03-17T17:37:34.760Z,14.10
2023-03-17T17:40:04.013Z,14.10
2023-03-17T17:42:31.719Z,14.00
2023-03-17T17:44:59.682Z,14.00
2023-03-17T17:47:27.400Z,14.00
2023-03-17T17:49:55.029Z,14.00
2023-03-17T17:52:22.680Z,13.90
2023-03-17T17:54:50.355Z,13.90
2023-03-17T17:57:19.457Z,13.90
2023-03-17T17:59:47.197Z,13.80
2023-03-17T18:02:14.994Z,13.80
2023-03-17T18:04:42.719Z,13.80
2023-03-17T18:07:10.518Z,13.70
2023-03-17T18:09:38.310Z,13.70
2023-03-17T18:12:06.433Z,13.70
2023-03-17T18:14:35.818Z,13.70
2023-03-17T18:17:03.539Z,13.70
2023-03-17T18:19:31.954Z,13.70
2023-03-17T18:21:59.764Z,13.60
2023-03-17T18:24:27.466Z,13.50
2023-03-17T18:26:55.156Z,13.50
2023-03-17T18:29:22.860Z,13.50
2023-03-17T18:31:53.863Z,13.50
2023-03-17T18:34:23.993Z,13.40
2023-03-17T18:36:52.339Z,13.30
2023-03-17T18:39:20.043Z,13.30
2023-03-17T18:41:48.871Z,13.30
2023-03-17T18:44:16.672Z,13.30
2023-03-17T18:46:44.680Z,13.20
2023-03-17T18:49:13.748Z,13.20
2023-03-17T18:51:41.428Z,13.20
2023-03-17T18:54:09.281Z,13.20
2023-03-17T18:56:36.904Z,13.10
2023-03-17T18:59:04.682Z,13.10
2023-03-17T19:01:32.426Z,13.10
2023-03-17T19:04:03.375Z,13.00
2023-03-17T19:06:32.580Z,13.00
2023-03-17T19:09:00.845Z,12.90
2023-03-17T19:11:28.540Z,12.90
2023-03-17T19:13:56.399Z,12.90
2023-03-17T19:16:28.775Z,12.90
2023-03-17T19:18:56.821Z,12.80
2023-03-17T19:21:24.942Z,12.80
2023-03-17T19:23:53.921Z,12.80
2023-03-17T19:26:21.726Z,12.70
2023-03-17T19:28:49.456Z,12.70
2023-03-17T19:31:17.202Z,12.70
2023-03-17T19:33:44.952Z,12.60
2023-03-17T19:36:14.039Z,12.60
2023-03-17T19:38:42.020Z,12.60
2023-03-17T19:41:11.121Z,12.60
2023-03-17T19:43:41.385Z,12.60
2023-03-17T19:46:09.802Z,12.60
2023-03-17T19:48:37.654Z,12.50
2023-03-17T19:51:05.842Z,12.50
2023-03-17T19:53:33.518Z,12.40
2023-03-17T19:56:04.305Z,12.40
2023-03-17T19:58:33.345Z,12.40
2023-03-17T20:01:01.374Z,12.40
2023-03-17T20:03:29.215Z,12.40
2023-03-17T20:05:56.921Z,12.40
2023-03-17T20:08:24.820Z,12.30
2023-03-17T20:10:53.855Z,12.30
2023-03-17T20:13:22.047Z,12.20
2023-03-17T20:15:51.572Z,12.20
2023-03-17T20:18:19.784Z,12.20
2023-03-17T20:20:49.777Z,12.10
2023-03-17T20:23:18.062Z,12.10
2023-03-17T20:25:45.731Z,12.10
2023-03-17T20:28:14.036Z,12.10
2023-03-17T20:30:43.811Z,12.10
2023-03-17T20:33:13.210Z,12.00
2023-03-17T20:35:41.818Z,12.00
2023-03-17T20:38:09.837Z,12.00
2023-03-17T20:40:37.797Z,12.00
2023-03-17T20:43:05.500Z,11.90
2023-03-17T20:45:33.208Z,11.90
2023-03-17T20:48:02.009Z,11.90
2023-03-17T20:50:31.789Z,11.90
2023-03-17T20:52:59.836Z,11.80
2023-03-17T20:55:27.480Z,11.80
2023-03-17T20:57:58.656Z,11.80
2023-03-17T21:00:26.725Z,11.70
2023-03-17T21:02:54.474Z,11.70
2023-03-17T21:05:23.995Z,11.70
2023-03-17T21:07:53.249Z,11.60
2023-03-17T21:10:21.193Z,11.60
2023-03-17T21:12:48.913Z,11.60
2023-03-17T21:15:16.807Z,11.60
2023-03-17T21:17:44.616Z,11.60
2023-03-17T21:20:12.977Z,11.50
2023-03-17T21:22:40.919Z,11.50
2023-03-17T21:25:10.887Z,11.50
2023-03-17T21:27:38.778Z,11.50
2023-03-17T21:30:06.945Z,11.40
2023-03-17T21:32:34.668Z,11.40
2023-03-17T21:35:02.452Z,11.40
2023-03-17T21:37:30.312Z,11.40
2023-03-17T21:39:58.085Z,11.30
2023-03-17T21:42:27.730Z,11.30
2023-03-17T21:44:55.403Z,11.30
2023-03-17T21:47:23.183Z,11.20
2023-03-17T21:49:50.961Z,11.20
2023-03-17T21:52:20.745Z,11.20
2023-03-17T21:54:48.733Z,11.20
2023-03-17T21:57:16.602Z,11.20
2023-03-17T21:59:45.699Z,11.10
2023-03-17T22:02:13.753Z,11.10
2023-03-17T22:04:41.697Z,11.10
2023-03-17T22:07:09.438Z,11.10
2023-03-17T22:09:37.503Z,11.00
2023-03-17T22:12:05.955Z,11.00
2023-03-17T22:14:35.515Z,11.00
2023-03-17T22:17:06.057Z,11.00
2023-03-17T22:19:33.797Z,10.90
2023-03-17T22:22:02.101Z,10.90
2023-03-17T22:24:29.773Z,10.90
2023-03-17T22:26:57.471Z,10.80
2023-03-17T22:29:26.342Z,10.80
2023-03-17T22:31:54.085Z,10.80
2023-03-17T22:34:23.332Z,10.80
2023-03-17T22:36:51.347Z,10.80
2023-03-17T22:39:19.047Z,10.80
2023-03-17T22:41:46.729Z,10.70
2023-03-17T22:44:14.377Z,10.70
2023-03-17T22:46:42.126Z,10.70
2023-03-17T22:49:10.070Z,10.70
2023-03-17T22:51:41.105Z,10.70
2023-03-17T22:54:11.217Z,10.60
2023-03-17T22:56:39.109Z,10.60
2023-03-17T22:59:06.813Z,10.60
2023-03-17T23:01:34.567Z,10.60
2023-03-17T23:04:02.344Z,10.60
2023-03-17T23:06:30.065Z,10.60
2023-03-17T23:08:59.395Z,10.50
2023-03-17T23:11:28.014Z,10.50
2023-03-17T23:13:55.736Z,10.50
2023-03-17T23:16:23.610Z,10.50
2023-03-17T23:18:51.703Z,10.40
2023-03-17T23:21:21.736Z,10.40
2023-03-17T23:23:49.495Z,10.40
2023-03-17T23:26:18.575Z,10.40
2023-03-17T23:28:47.569Z,10.40
2023-03-17T23:31:15.815Z,10.40
2023-03-17T23:33:43.647Z,10.40
2023-03-17T23:36:11.351Z,10.30
2023-03-17T23:38:38.975Z,10.40
2023-03-17T23:41:07.369Z,10.30
2023-03-17T23:43:37.391Z,10.30
2023-03-17T23:46:05.282Z,10.30
2023-03-17T23:48:33.072Z,10.30
2023-03-17T23:51:00.994Z,10.20
2023-03-17T23:53:28.854Z,10.20
2023-03-17T23:55:56.495Z,10.30
2023-03-17T23:58:24.273Z,10.20
